Etusivu
METAR-TAF:

METAR-TAF

Lentoasemat :

Morrisville-Stowe State Airport

Morrisville, Vermont, Yhdysvallat

Leveyspiiri: 44-32-10N, Pituuspiiri: 072-36-58W, korkeus merenpinnasta: 223 m

Tämänhetkinen sää

Tämä raportti tehtiin 21 minuuttia sitten, kello 06.54 UTC
Tuuli 4 kn eri suunnista
Lämpötila 7°C
Kosteus 70%
Ilmanpaine 1021 hPa
Näkyvyys: 16.1 km
Hajonneita pilviä 4100 ft:n korkeudessa

METAR: KMVL 010654Z AUTO VRB04KT 10SM BKN041 07/02 A3014 RMK AO2 SLP212 T00670017 $

Aika: 03:15 (07:15 UTC)


TAF: puuttuu

Säähavainnot ja -ennusteet yli 4000 lentoasemalta (METAR- ja TAF-raportit).

Käytössä olevat sääasemat on merkitty karttaan keltaisilla ja punaisilla pisteillä.

Aseta hiiri pisteen päälle nähdäksesi sääaseman nimen.

Klikkaa sitten nähdäksesi säähavainnot ja -ennusteet.

Kartan vaihtaminen: klikkaa mustalla rastilla varustettuja vihreitä pisteitä, niin voit zoomata sisään; viivalla varustettua vihreää pistettä, niin voit zoomata ulos tai vihreitä nuolia, niin pääset viereisille kartoille.


METAR-TAF: